createdAt,value
2023-03-15T00:01:27.205Z,9.03
2023-03-15T00:06:35.442Z,9.04
2023-03-15T00:11:38.553Z,9.08
2023-03-15T00:16:43.429Z,9.09
2023-03-15T00:21:46.390Z,9.08
2023-03-15T00:26:49.308Z,9.07
2023-03-15T00:31:52.263Z,9.04
2023-03-15T00:36:55.144Z,9.00
2023-03-15T00:41:58.093Z,8.96
2023-03-15T00:47:00.863Z,8.91
2023-03-15T00:52:04.445Z,8.86
2023-03-15T00:57:07.441Z,8.80
2023-03-15T01:02:11.320Z,8.75
2023-03-15T01:07:14.355Z,8.68
2023-03-15T01:12:17.469Z,8.62
2023-03-15T01:17:21.219Z,8.57
2023-03-15T01:22:24.247Z,8.52
2023-03-15T01:27:27.877Z,8.47
2023-03-15T01:32:30.744Z,8.44
2023-03-15T01:37:34.584Z,8.38
2023-03-15T01:43:19.194Z,8.33
2023-03-15T01:48:26.426Z,8.27
2023-03-15T01:53:32.048Z,8.26
2023-03-15T01:58:36.921Z,8.23
2023-03-15T02:03:46.811Z,8.19
2023-03-15T02:09:01.859Z,8.15
2023-03-15T02:14:06.835Z,8.12
2023-03-15T02:19:25.527Z,8.06
2023-03-15T02:25:15.682Z,8.01
2023-03-15T02:30:19.101Z,7.98
2023-03-15T02:35:30.268Z,7.94
2023-03-15T02:40:33.300Z,7.88
2023-03-15T02:45:38.519Z,7.87
2023-03-15T02:50:41.447Z,7.87
2023-03-15T02:55:44.242Z,7.85
2023-03-15T03:00:47.124Z,7.87
2023-03-15T03:05:50.244Z,7.92
2023-03-15T03:10:53.165Z,7.95
2023-03-15T03:15:59.184Z,7.97
2023-03-15T03:21:05.950Z,7.95
2023-03-15T03:26:18.639Z,7.95
2023-03-15T03:31:25.899Z,7.93
2023-03-15T03:36:29.022Z,7.90
2023-03-15T03:41:32.013Z,7.89
2023-03-15T03:46:36.460Z,7.88
2023-03-15T03:51:39.658Z,7.87
2023-03-15T03:56:42.529Z,7.82
2023-03-15T04:01:46.335Z,7.77
2023-03-15T04:06:50.800Z,7.75
2023-03-15T04:11:54.116Z,7.75
2023-03-15T04:16:57.200Z,7.76
2023-03-15T04:22:06.867Z,7.74
2023-03-15T04:27:14.543Z,7.73
2023-03-15T04:32:18.189Z,7.66
2023-03-15T04:37:21.075Z,7.53
2023-03-15T04:42:26.226Z,7.40
2023-03-15T04:47:29.324Z,7.25
2023-03-15T04:52:32.610Z,7.08
2023-03-15T04:57:35.736Z,6.94
2023-03-15T05:02:41.790Z,6.82
2023-03-15T05:07:45.178Z,6.71
2023-03-15T05:12:48.327Z,6.62
2023-03-15T05:17:55.086Z,6.51
2023-03-15T05:22:59.866Z,6.41
2023-03-15T05:28:04.996Z,6.28
2023-03-15T05:33:08.091Z,6.20
2023-03-15T05:38:14.826Z,6.07
2023-03-15T05:43:17.839Z,5.97
2023-03-15T05:48:20.748Z,5.89
2023-03-15T05:53:23.662Z,5.87
2023-03-15T05:58:27.123Z,5.89
2023-03-15T06:03:35.032Z,5.99
2023-03-15T06:08:37.940Z,6.09
2023-03-15T06:13:40.759Z,6.20
2023-03-15T06:18:43.549Z,6.28
2023-03-15T06:23:46.492Z,6.31
2023-03-15T06:28:49.728Z,6.37
2023-03-15T06:33:52.516Z,6.40
2023-03-15T06:38:55.409Z,6.41
2023-03-15T06:43:58.722Z,6.43
2023-03-15T06:49:01.580Z,6.44
2023-03-15T06:54:04.648Z,6.45
2023-03-15T06:59:07.984Z,6.51
2023-03-15T07:04:10.963Z,6.51
2023-03-15T07:09:13.732Z,6.48
2023-03-15T07:14:16.834Z,6.50
2023-03-15T07:19:19.895Z,6.57
2023-03-15T07:24:23.328Z,6.59
2023-03-15T07:29:26.741Z,6.63
2023-03-15T07:34:29.735Z,6.61
2023-03-15T07:39:32.828Z,6.55
2023-03-15T07:44:35.725Z,6.51
2023-03-15T07:49:38.742Z,6.48
2023-03-15T07:54:41.560Z,6.45
2023-03-15T07:59:44.778Z,6.44
2023-03-15T08:04:48.853Z,6.46
2023-03-15T08:09:51.829Z,6.43
2023-03-15T08:14:54.784Z,6.46
2023-03-15T08:19:57.765Z,6.50
2023-03-15T08:25:01.905Z,6.52
2023-03-15T08:30:07.540Z,6.56
2023-03-15T08:35:15.492Z,6.53
2023-03-15T08:40:26.580Z,6.50
2023-03-15T08:45:30.501Z,6.46
2023-03-15T08:50:34.027Z,6.41
2023-03-15T08:55:38.022Z,6.37
2023-03-15T09:00:41.062Z,6.31
2023-03-15T09:05:44.555Z,6.23
2023-03-15T09:10:47.580Z,6.19
2023-03-15T09:15:54.928Z,6.16
2023-03-15T09:20:58.138Z,6.17
2023-03-15T09:26:01.596Z,6.14
2023-03-15T09:31:06.783Z,6.14
2023-03-15T09:36:09.838Z,6.14
2023-03-15T09:41:43.599Z,6.24
2023-03-15T09:47:37.042Z,6.33
2023-03-15T09:53:27.538Z,6.39
2023-03-15T09:58:32.920Z,6.41
2023-03-15T10:03:47.212Z,6.53
2023-03-15T10:08:56.621Z,6.64
2023-03-15T10:14:30.983Z,6.70
2023-03-15T10:19:45.720Z,6.73
2023-03-15T10:24:55.086Z,6.73
2023-03-15T10:30:00.510Z,6.66
2023-03-15T10:35:18.341Z,6.72
2023-03-15T10:40:59.207Z,6.79
2023-03-15T10:46:12.210Z,6.80
2023-03-15T10:51:31.895Z,6.92
2023-03-15T10:56:56.496Z,6.98
2023-03-15T11:02:20.282Z,6.96
2023-03-15T11:07:24.496Z,7.06
2023-03-15T11:12:31.765Z,7.20
2023-03-15T11:17:44.972Z,7.30
2023-03-15T11:22:48.045Z,7.41
2023-03-15T11:27:53.782Z,7.55
2023-03-15T11:33:04.608Z,7.71
2023-03-15T11:38:37.427Z,7.94
2023-03-15T11:44:09.909Z,8.15
2023-03-15T11:49:52.067Z,8.32
2023-03-15T11:55:01.437Z,8.41
2023-03-15T12:00:28.687Z,8.34
2023-03-15T12:05:53.171Z,8.35
2023-03-15T12:10:56.461Z,8.48
2023-03-15T12:15:59.407Z,8.51
2023-03-15T12:21:12.589Z,8.60
2023-03-15T12:26:49.438Z,8.57
2023-03-15T12:32:13.704Z,8.55
2023-03-15T12:37:38.206Z,8.69
2023-03-15T12:42:41.035Z,8.83
2023-03-15T12:47:50.335Z,8.97
2023-03-15T12:52:54.046Z,9.04
2023-03-15T12:57:59.437Z,9.24
2023-03-15T13:03:19.219Z,9.27
2023-03-15T13:08:24.443Z,9.31
2023-03-15T13:13:54.518Z,9.35
2023-03-15T13:19:19.321Z,9.14
2023-03-15T13:24:57.881Z,9.08
2023-03-15T13:30:48.352Z,8.97
2023-03-15T13:36:15.291Z,8.85
2023-03-15T13:41:31.269Z,8.77
2023-03-15T13:46:34.639Z,8.60
2023-03-15T13:51:39.582Z,8.51
2023-03-15T13:57:22.761Z,8.30
2023-03-15T14:02:48.093Z,8.19
2023-03-15T14:08:07.141Z,8.05
2023-03-15T14:13:33.613Z,7.97
2023-03-15T14:18:39.444Z,7.85
2023-03-15T14:23:49.216Z,7.83
2023-03-15T14:29:29.883Z,7.86
2023-03-15T14:34:44.249Z,7.70
2023-03-15T14:39:47.169Z,7.44
2023-03-15T14:44:51.666Z,7.32
2023-03-15T14:49:55.173Z,7.25
2023-03-15T14:54:59.006Z,7.14
2023-03-15T15:00:04.144Z,7.10
2023-03-15T15:05:30.246Z,7.10
2023-03-15T15:10:34.887Z,7.08
2023-03-15T15:15:54.668Z,7.02
2023-03-15T15:21:03.020Z,6.98
2023-03-15T15:26:26.648Z,6.89
2023-03-15T15:31:34.354Z,6.84
2023-03-15T15:36:43.985Z,6.83
2023-03-15T15:41:47.338Z,6.77
2023-03-15T15:46:50.688Z,6.81
2023-03-15T15:51:53.663Z,6.74
2023-03-15T15:56:59.139Z,6.74
2023-03-15T16:02:02.850Z,6.69
2023-03-15T16:07:07.743Z,6.62
2023-03-15T16:12:14.240Z,6.57
2023-03-15T16:17:23.298Z,6.47
2023-03-15T16:22:27.332Z,6.36
2023-03-15T16:27:30.740Z,6.23
2023-03-15T16:32:43.850Z,6.17
2023-03-15T16:37:48.140Z,6.11
2023-03-15T16:42:51.533Z,6.02
2023-03-15T16:48:00.118Z,5.93
2023-03-15T16:53:07.938Z,5.77
2023-03-15T16:58:20.722Z,5.64
2023-03-15T17:03:28.558Z,5.53
2023-03-15T17:08:32.887Z,5.42
2023-03-15T17:13:40.937Z,5.30
2023-03-15T17:18:44.561Z,5.22
2023-03-15T17:23:50.952Z,5.19
2023-03-15T17:28:54.438Z,5.06
2023-03-15T17:33:58.765Z,4.98
2023-03-15T17:39:06.386Z,4.89
2023-03-15T17:44:10.905Z,4.78
2023-03-15T17:49:15.930Z,4.75
2023-03-15T17:54:22.046Z,4.66
2023-03-15T17:59:27.339Z,4.65
2023-03-15T18:04:31.276Z,4.63
2023-03-15T18:09:34.361Z,4.66
2023-03-15T18:14:38.273Z,4.66
2023-03-15T18:19:41.394Z,4.67
2023-03-15T18:24:46.933Z,4.65
2023-03-15T18:29:52.896Z,4.67
2023-03-15T18:34:56.523Z,4.68
2023-03-15T18:39:59.476Z,4.68
2023-03-15T18:45:02.313Z,4.70
2023-03-15T18:50:10.634Z,4.71
2023-03-15T18:55:16.968Z,4.71
2023-03-15T19:00:32.724Z,4.69
2023-03-15T19:05:38.201Z,4.65
2023-03-15T19:10:47.523Z,4.59
2023-03-15T19:15:52.767Z,4.54
2023-03-15T19:20:56.559Z,4.41
2023-03-15T19:25:59.544Z,4.30
2023-03-15T19:31:03.710Z,4.19
2023-03-15T19:36:08.671Z,4.20
2023-03-15T19:41:13.122Z,4.16
2023-03-15T19:46:17.443Z,4.12
2023-03-15T19:51:23.393Z,4.03
2023-03-15T19:56:26.405Z,3.95
2023-03-15T20:01:29.718Z,3.87
2023-03-15T20:06:32.962Z,3.82
2023-03-15T20:11:35.976Z,3.77
2023-03-15T20:16:39.024Z,3.77
2023-03-15T20:21:43.931Z,3.81
2023-03-15T20:26:46.974Z,3.84
2023-03-15T20:31:50.961Z,3.85
2023-03-15T20:36:54.198Z,3.89
2023-03-15T20:41:57.174Z,3.93
2023-03-15T20:47:00.377Z,3.96
2023-03-15T20:52:05.259Z,4.01
2023-03-15T20:57:08.458Z,4.03
2023-03-15T21:02:11.703Z,4.05
2023-03-15T21:07:14.894Z,4.05
2023-03-15T21:12:19.398Z,4.07
2023-03-15T21:17:22.351Z,4.07
2023-03-15T21:22:25.403Z,4.05
2023-03-15T21:27:28.668Z,4.02
2023-03-15T21:32:31.428Z,4.00
2023-03-15T21:37:35.123Z,3.98
2023-03-15T21:42:38.418Z,3.94
2023-03-15T21:47:41.746Z,3.93
2023-03-15T21:52:45.233Z,3.94
2023-03-15T21:57:48.303Z,3.95
2023-03-15T22:02:55.590Z,3.99
2023-03-15T22:07:58.883Z,4.05
2023-03-15T22:13:01.887Z,4.11
2023-03-15T22:18:05.015Z,4.10
2023-03-15T22:23:08.417Z,4.06
2023-03-15T22:28:11.639Z,4.01
2023-03-15T22:33:15.733Z,3.99
2023-03-15T22:38:18.791Z,3.99
2023-03-15T22:43:21.660Z,4.00
2023-03-15T22:48:24.869Z,3.99
2023-03-15T22:53:29.161Z,4.00
2023-03-15T22:58:32.479Z,4.00
2023-03-15T23:03:35.449Z,4.02
2023-03-15T23:08:38.440Z,3.99
2023-03-15T23:13:42.357Z,3.92
2023-03-15T23:18:45.759Z,3.90
2023-03-15T23:23:48.621Z,3.84
2023-03-15T23:28:53.368Z,3.79
2023-03-15T23:33:56.305Z,3.68
2023-03-15T23:39:00.482Z,3.57
2023-03-15T23:44:03.669Z,3.45
2023-03-15T23:49:07.655Z,3.31
2023-03-15T23:54:11.380Z,3.19
2023-03-15T23:59:14.476Z,2.98
